sensor_id;sensor_type;location;lat;lon;timestamp;P1;durP1;ratioP1;P2;durP2;ratioP2
78209;SDS011;67485;48.816;9.930;2023-07-16T00:02:24;5.40;;;2.83;;
78209;SDS011;67485;48.816;9.930;2023-07-16T00:04:49;4.93;;;2.57;;
78209;SDS011;67485;48.816;9.930;2023-07-16T00:07:15;4.67;;;2.73;;
78209;SDS011;67485;48.816;9.930;2023-07-16T00:09:43;5.15;;;2.50;;
78209;SDS011;67485;48.816;9.930;2023-07-16T00:12:09;5.70;;;2.40;;
78209;SDS011;67485;48.816;9.930;2023-07-16T00:14:35;4.77;;;2.70;;
78209;SDS011;67485;48.816;9.930;2023-07-16T00:17:00;5.97;;;2.77;;
78209;SDS011;67485;48.816;9.930;2023-07-16T00:19:26;5.13;;;2.17;;
78209;SDS011;67485;48.816;9.930;2023-07-16T00:21:52;4.20;;;2.03;;
78209;SDS011;67485;48.816;9.930;2023-07-16T00:24:17;3.13;;;1.67;;
78209;SDS011;67485;48.816;9.930;2023-07-16T00:26:43;3.30;;;1.70;;
78209;SDS011;67485;48.816;9.930;2023-07-16T00:29:09;4.07;;;1.70;;
78209;SDS011;67485;48.816;9.930;2023-07-16T00:31:35;3.83;;;1.70;;
78209;SDS011;67485;48.816;9.930;2023-07-16T00:34:00;4.18;;;1.80;;
78209;SDS011;67485;48.816;9.930;2023-07-16T00:36:26;6.10;;;2.10;;
78209;SDS011;67485;48.816;9.930;2023-07-16T00:38:52;2.97;;;1.80;;
78209;SDS011;67485;48.816;9.930;2023-07-16T00:41:17;3.10;;;1.60;;
78209;SDS011;67485;48.816;9.930;2023-07-16T00:43:43;3.47;;;1.77;;
78209;SDS011;67485;48.816;9.930;2023-07-16T00:46:09;2.90;;;1.60;;
78209;SDS011;67485;48.816;9.930;2023-07-16T00:48:36;3.22;;;1.77;;
78209;SDS011;67485;48.816;9.930;2023-07-16T00:51:02;4.37;;;1.70;;
78209;SDS011;67485;48.816;9.930;2023-07-16T00:53:30;2.07;;;1.47;;
78209;SDS011;67485;48.816;9.930;2023-07-16T00:55:55;2.25;;;1.20;;
78209;SDS011;67485;48.816;9.930;2023-07-16T00:58:21;2.90;;;1.45;;
78209;SDS011;67485;48.816;9.930;2023-07-16T01:00:47;2.57;;;1.37;;
78209;SDS011;67485;48.816;9.930;2023-07-16T01:03:13;2.70;;;1.15;;
78209;SDS011;67485;48.816;9.930;2023-07-16T01:08:06;3.00;;;1.20;;
78209;SDS011;67485;48.816;9.930;2023-07-16T01:10:35;2.38;;;1.40;;
78209;SDS011;67485;48.816;9.930;2023-07-16T01:13:02;1.85;;;1.40;;
78209;SDS011;67485;48.816;9.930;2023-07-16T01:15:28;2.13;;;1.40;;
78209;SDS011;67485;48.816;9.930;2023-07-16T01:17:54;1.98;;;1.30;;
78209;SDS011;67485;48.816;9.930;2023-07-16T01:20:20;1.93;;;1.20;;
78209;SDS011;67485;48.816;9.930;2023-07-16T01:22:56;2.45;;;1.40;;
78209;SDS011;67485;48.816;9.930;2023-07-16T01:26:01;1.80;;;1.23;;
78209;SDS011;67485;48.816;9.930;2023-07-16T01:31:36;2.13;;;0.93;;
78209;SDS011;67485;48.816;9.930;2023-07-16T01:34:04;1.58;;;1.05;;
78209;SDS011;67485;48.816;9.930;2023-07-16T01:36:31;2.85;;;1.30;;
78209;SDS011;67485;48.816;9.930;2023-07-16T01:38:59;2.00;;;1.10;;
78209;SDS011;67485;48.816;9.930;2023-07-16T01:41:25;1.60;;;0.93;;
78209;SDS011;67485;48.816;9.930;2023-07-16T01:43:50;2.15;;;1.23;;
78209;SDS011;67485;48.816;9.930;2023-07-16T01:46:17;1.47;;;0.90;;
78209;SDS011;67485;48.816;9.930;2023-07-16T01:48:43;1.95;;;0.93;;
78209;SDS011;67485;48.816;9.930;2023-07-16T01:51:09;1.37;;;0.80;;
78209;SDS011;67485;48.816;9.930;2023-07-16T01:53:36;1.73;;;0.90;;
78209;SDS011;67485;48.816;9.930;2023-07-16T01:56:02;1.70;;;0.90;;
78209;SDS011;67485;48.816;9.930;2023-07-16T01:58:28;1.58;;;0.88;;
78209;SDS011;67485;48.816;9.930;2023-07-16T02:00:54;6.43;;;1.67;;
78209;SDS011;67485;48.816;9.930;2023-07-16T02:03:19;1.95;;;1.10;;
78209;SDS011;67485;48.816;9.930;2023-07-16T02:05:45;2.10;;;1.10;;
78209;SDS011;67485;48.816;9.930;2023-07-16T02:08:11;1.60;;;0.90;;
78209;SDS011;67485;48.816;9.930;2023-07-16T02:10:36;1.40;;;0.93;;
78209;SDS011;67485;48.816;9.930;2023-07-16T02:13:02;1.43;;;0.80;;
78209;SDS011;67485;48.816;9.930;2023-07-16T02:15:28;1.65;;;0.80;;
78209;SDS011;67485;48.816;9.930;2023-07-16T02:17:53;2.30;;;1.10;;
78209;SDS011;67485;48.816;9.930;2023-07-16T02:20:19;1.70;;;1.10;;
78209;SDS011;67485;48.816;9.930;2023-07-16T02:22:45;2.13;;;0.98;;
78209;SDS011;67485;48.816;9.930;2023-07-16T02:25:11;2.07;;;1.00;;
78209;SDS011;67485;48.816;9.930;2023-07-16T02:27:38;1.77;;;1.25;;
78209;SDS011;67485;48.816;9.930;2023-07-16T02:30:04;2.30;;;0.93;;
78209;SDS011;67485;48.816;9.930;2023-07-16T02:32:31;2.47;;;1.20;;
78209;SDS011;67485;48.816;9.930;2023-07-16T02:34:59;1.90;;;1.20;;
78209;SDS011;67485;48.816;9.930;2023-07-16T02:37:27;2.60;;;1.38;;
78209;SDS011;67485;48.816;9.930;2023-07-16T02:39:53;2.33;;;1.02;;
78209;SDS011;67485;48.816;9.930;2023-07-16T02:42:18;1.70;;;1.00;;
78209;SDS011;67485;48.816;9.930;2023-07-16T02:44:44;1.30;;;0.80;;
78209;SDS011;67485;48.816;9.930;2023-07-16T02:47:10;2.22;;;1.08;;
78209;SDS011;67485;48.816;9.930;2023-07-16T02:49:37;2.08;;;1.00;;
78209;SDS011;67485;48.816;9.930;2023-07-16T02:52:03;2.20;;;1.00;;
78209;SDS011;67485;48.816;9.930;2023-07-16T02:54:29;1.60;;;1.00;;
78209;SDS011;67485;48.816;9.930;2023-07-16T02:56:55;3.60;;;1.30;;
78209;SDS011;67485;48.816;9.930;2023-07-16T02:59:21;1.40;;;1.00;;
78209;SDS011;67485;48.816;9.930;2023-07-16T03:01:46;1.73;;;1.15;;
78209;SDS011;67485;48.816;9.930;2023-07-16T03:04:13;2.65;;;1.15;;
78209;SDS011;67485;48.816;9.930;2023-07-16T03:06:38;7.37;;;1.10;;
78209;SDS011;67485;48.816;9.930;2023-07-16T03:09:04;2.80;;;1.00;;
78209;SDS011;67485;48.816;9.930;2023-07-16T03:11:30;2.27;;;1.13;;
78209;SDS011;67485;48.816;9.930;2023-07-16T03:13:55;2.13;;;1.40;;
78209;SDS011;67485;48.816;9.930;2023-07-16T03:16:21;2.58;;;1.00;;
78209;SDS011;67485;48.816;9.930;2023-07-16T03:18:47;4.00;;;1.30;;
78209;SDS011;67485;48.816;9.930;2023-07-16T03:21:13;3.80;;;1.27;;
78209;SDS011;67485;48.816;9.930;2023-07-16T03:23:39;2.65;;;1.00;;
78209;SDS011;67485;48.816;9.930;2023-07-16T03:26:05;2.17;;;1.05;;
78209;SDS011;67485;48.816;9.930;2023-07-16T03:28:32;2.00;;;1.17;;
78209;SDS011;67485;48.816;9.930;2023-07-16T03:30:59;4.90;;;1.50;;
78209;SDS011;67485;48.816;9.930;2023-07-16T03:33:25;1.88;;;1.20;;
78209;SDS011;67485;48.816;9.930;2023-07-16T03:35:51;2.70;;;1.23;;
78209;SDS011;67485;48.816;9.930;2023-07-16T03:38:18;2.90;;;1.30;;
78209;SDS011;67485;48.816;9.930;2023-07-16T03:40:46;3.47;;;1.05;;
78209;SDS011;67485;48.816;9.930;2023-07-16T03:43:13;2.45;;;1.30;;
78209;SDS011;67485;48.816;9.930;2023-07-16T03:45:39;2.50;;;1.27;;
78209;SDS011;67485;48.816;9.930;2023-07-16T03:48:05;1.95;;;1.17;;
78209;SDS011;67485;48.816;9.930;2023-07-16T03:50:31;2.33;;;1.20;;
78209;SDS011;67485;48.816;9.930;2023-07-16T03:52:56;2.13;;;1.47;;
78209;SDS011;67485;48.816;9.930;2023-07-16T03:55:22;2.97;;;1.40;;
78209;SDS011;67485;48.816;9.930;2023-07-16T03:57:49;4.23;;;1.40;;
78209;SDS011;67485;48.816;9.930;2023-07-16T04:00:14;2.03;;;1.10;;
78209;SDS011;67485;48.816;9.930;2023-07-16T04:02:40;2.03;;;1.30;;
78209;SDS011;67485;48.816;9.930;2023-07-16T04:05:08;2.85;;;1.02;;
78209;SDS011;67485;48.816;9.930;2023-07-16T04:07:34;2.90;;;1.20;;
78209;SDS011;67485;48.816;9.930;2023-07-16T04:09:59;2.37;;;1.20;;
78209;SDS011;67485;48.816;9.930;2023-07-16T04:12:25;2.37;;;1.23;;
78209;SDS011;67485;48.816;9.930;2023-07-16T04:14:54;2.50;;;1.52;;
78209;SDS011;67485;48.816;9.930;2023-07-16T04:17:22;2.08;;;1.15;;
78209;SDS011;67485;48.816;9.930;2023-07-16T04:19:48;2.17;;;1.33;;
78209;SDS011;67485;48.816;9.930;2023-07-16T04:22:13;2.90;;;1.40;;
78209;SDS011;67485;48.816;9.930;2023-07-16T04:24:39;2.50;;;1.13;;
78209;SDS011;67485;48.816;9.930;2023-07-16T04:27:05;2.70;;;1.10;;
78209;SDS011;67485;48.816;9.930;2023-07-16T04:29:30;3.63;;;1.30;;
78209;SDS011;67485;48.816;9.930;2023-07-16T04:31:56;2.50;;;1.00;;
78209;SDS011;67485;48.816;9.930;2023-07-16T04:34:22;2.90;;;0.80;;
78209;SDS011;67485;48.816;9.930;2023-07-16T04:36:47;3.30;;;1.27;;
78209;SDS011;67485;48.816;9.930;2023-07-16T04:39:13;2.97;;;1.00;;
78209;SDS011;67485;48.816;9.930;2023-07-16T04:41:38;3.00;;;1.20;;
78209;SDS011;67485;48.816;9.930;2023-07-16T04:44:04;1.92;;;1.17;;
78209;SDS011;67485;48.816;9.930;2023-07-16T04:46:30;1.95;;;1.20;;
78209;SDS011;67485;48.816;9.930;2023-07-16T04:48:56;3.87;;;1.07;;
78209;SDS011;67485;48.816;9.930;2023-07-16T04:51:21;2.60;;;1.10;;
78209;SDS011;67485;48.816;9.930;2023-07-16T04:53:47;2.40;;;1.13;;
78209;SDS011;67485;48.816;9.930;2023-07-16T04:56:14;4.55;;;1.58;;
78209;SDS011;67485;48.816;9.930;2023-07-16T04:58:41;2.65;;;1.13;;
78209;SDS011;67485;48.816;9.930;2023-07-16T05:01:07;4.32;;;1.55;;
78209;SDS011;67485;48.816;9.930;2023-07-16T05:03:33;3.43;;;1.17;;
78209;SDS011;67485;48.816;9.930;2023-07-16T05:05:59;4.85;;;1.38;;
78209;SDS011;67485;48.816;9.930;2023-07-16T05:08:24;3.40;;;1.70;;
78209;SDS011;67485;48.816;9.930;2023-07-16T05:10:50;2.85;;;1.20;;
78209;SDS011;67485;48.816;9.930;2023-07-16T05:13:16;2.90;;;1.47;;
78209;SDS011;67485;48.816;9.930;2023-07-16T05:15:43;2.73;;;1.20;;
78209;SDS011;67485;48.816;9.930;2023-07-16T05:18:09;3.73;;;1.40;;
78209;SDS011;67485;48.816;9.930;2023-07-16T05:20:34;3.72;;;1.15;;
78209;SDS011;67485;48.816;9.930;2023-07-16T05:23:00;4.10;;;1.17;;
78209;SDS011;67485;48.816;9.930;2023-07-16T05:25:25;1.70;;;0.90;;
78209;SDS011;67485;48.816;9.930;2023-07-16T05:27:51;3.70;;;1.30;;
78209;SDS011;67485;48.816;9.930;2023-07-16T05:30:17;5.63;;;1.55;;
78209;SDS011;67485;48.816;9.930;2023-07-16T05:32:42;5.07;;;1.40;;
78209;SDS011;67485;48.816;9.930;2023-07-16T05:35:08;3.27;;;1.30;;
78209;SDS011;67485;48.816;9.930;2023-07-16T05:37:34;5.25;;;1.50;;
78209;SDS011;67485;48.816;9.930;2023-07-16T05:39:59;4.30;;;1.53;;
78209;SDS011;67485;48.816;9.930;2023-07-16T05:42:25;4.57;;;1.10;;
78209;SDS011;67485;48.816;9.930;2023-07-16T05:44:51;5.13;;;1.67;;
78209;SDS011;67485;48.816;9.930;2023-07-16T05:47:16;4.00;;;1.20;;
78209;SDS011;67485;48.816;9.930;2023-07-16T05:49:42;5.03;;;1.53;;
78209;SDS011;67485;48.816;9.930;2023-07-16T05:52:08;3.08;;;1.05;;
78209;SDS011;67485;48.816;9.930;2023-07-16T05:54:34;4.15;;;1.70;;
78209;SDS011;67485;48.816;9.930;2023-07-16T05:57:00;3.10;;;1.10;;
78209;SDS011;67485;48.816;9.930;2023-07-16T05:59:26;2.80;;;1.10;;
78209;SDS011;67485;48.816;9.930;2023-07-16T06:01:51;4.73;;;1.40;;
78209;SDS011;67485;48.816;9.930;2023-07-16T06:04:17;3.20;;;1.30;;
78209;SDS011;67485;48.816;9.930;2023-07-16T06:06:43;4.00;;;1.37;;
78209;SDS011;67485;48.816;9.930;2023-07-16T06:09:08;4.63;;;1.50;;
78209;SDS011;67485;48.816;9.930;2023-07-16T06:11:34;2.97;;;1.23;;
78209;SDS011;67485;48.816;9.930;2023-07-16T06:14:00;4.45;;;1.30;;
78209;SDS011;67485;48.816;9.930;2023-07-16T06:16:25;4.43;;;1.40;;
78209;SDS011;67485;48.816;9.930;2023-07-16T06:18:51;3.85;;;1.70;;
78209;SDS011;67485;48.816;9.930;2023-07-16T06:21:17;3.17;;;1.60;;
78209;SDS011;67485;48.816;9.930;2023-07-16T06:23:42;3.80;;;1.40;;
78209;SDS011;67485;48.816;9.930;2023-07-16T06:26:08;4.50;;;1.50;;
78209;SDS011;67485;48.816;9.930;2023-07-16T06:28:33;3.70;;;1.77;;
78209;SDS011;67485;48.816;9.930;2023-07-16T06:30:59;6.87;;;1.90;;
78209;SDS011;67485;48.816;9.930;2023-07-16T06:33:25;4.20;;;1.60;;
78209;SDS011;67485;48.816;9.930;2023-07-16T06:35:52;4.22;;;1.60;;
78209;SDS011;67485;48.816;9.930;2023-07-16T06:38:17;3.13;;;1.30;;
78209;SDS011;67485;48.816;9.930;2023-07-16T06:40:49;3.90;;;1.37;;
78209;SDS011;67485;48.816;9.930;2023-07-16T06:43:16;4.45;;;1.55;;
78209;SDS011;67485;48.816;9.930;2023-07-16T06:45:43;6.13;;;1.63;;
78209;SDS011;67485;48.816;9.930;2023-07-16T06:48:08;5.13;;;1.77;;
78209;SDS011;67485;48.816;9.930;2023-07-16T06:50:34;3.63;;;1.20;;
78209;SDS011;67485;48.816;9.930;2023-07-16T06:53:00;3.63;;;1.47;;
78209;SDS011;67485;48.816;9.930;2023-07-16T06:55:25;4.18;;;1.52;;
78209;SDS011;67485;48.816;9.930;2023-07-16T06:57:51;4.33;;;1.60;;
78209;SDS011;67485;48.816;9.930;2023-07-16T07:00:16;3.47;;;1.55;;
78209;SDS011;67485;48.816;9.930;2023-07-16T07:02:42;3.57;;;1.60;;
78209;SDS011;67485;48.816;9.930;2023-07-16T07:05:08;4.70;;;1.70;;
78209;SDS011;67485;48.816;9.930;2023-07-16T07:07:34;3.80;;;1.80;;
78209;SDS011;67485;48.816;9.930;2023-07-16T07:09:59;4.45;;;1.50;;
78209;SDS011;67485;48.816;9.930;2023-07-16T07:12:25;4.13;;;1.50;;
78209;SDS011;67485;48.816;9.930;2023-07-16T07:14:51;5.00;;;1.80;;
78209;SDS011;67485;48.816;9.930;2023-07-16T07:17:16;5.60;;;1.57;;
78209;SDS011;67485;48.816;9.930;2023-07-16T07:19:42;4.20;;;1.47;;
78209;SDS011;67485;48.816;9.930;2023-07-16T07:22:08;3.72;;;1.27;;
78209;SDS011;67485;48.816;9.930;2023-07-16T07:24:34;2.97;;;1.33;;
78209;SDS011;67485;48.816;9.930;2023-07-16T07:27:00;4.40;;;1.47;;
78209;SDS011;67485;48.816;9.930;2023-07-16T07:29:25;5.03;;;1.73;;
78209;SDS011;67485;48.816;9.930;2023-07-16T07:31:51;3.22;;;1.30;;
78209;SDS011;67485;48.816;9.930;2023-07-16T07:34:17;4.38;;;1.70;;
78209;SDS011;67485;48.816;9.930;2023-07-16T07:36:43;5.47;;;1.70;;
78209;SDS011;67485;48.816;9.930;2023-07-16T07:39:09;4.05;;;1.90;;
78209;SDS011;67485;48.816;9.930;2023-07-16T07:41:34;5.27;;;1.60;;
78209;SDS011;67485;48.816;9.930;2023-07-16T07:44:00;3.83;;;1.40;;
78209;SDS011;67485;48.816;9.930;2023-07-16T07:46:26;2.83;;;1.48;;
78209;SDS011;67485;48.816;9.930;2023-07-16T07:48:51;5.47;;;1.40;;
78209;SDS011;67485;48.816;9.930;2023-07-16T07:51:17;3.75;;;1.58;;
78209;SDS011;67485;48.816;9.930;2023-07-16T07:53:43;3.67;;;1.80;;
78209;SDS011;67485;48.816;9.930;2023-07-16T07:56:08;4.80;;;1.58;;
78209;SDS011;67485;48.816;9.930;2023-07-16T07:58:34;3.93;;;1.30;;
78209;SDS011;67485;48.816;9.930;2023-07-16T08:01:03;6.32;;;1.70;;
78209;SDS011;67485;48.816;9.930;2023-07-16T08:03:32;4.30;;;1.47;;
78209;SDS011;67485;48.816;9.930;2023-07-16T08:05:58;6.78;;;1.73;;
78209;SDS011;67485;48.816;9.930;2023-07-16T08:08:24;3.97;;;1.58;;
78209;SDS011;67485;48.816;9.930;2023-07-16T08:10:50;3.60;;;1.57;;
78209;SDS011;67485;48.816;9.930;2023-07-16T08:13:15;3.88;;;1.60;;
78209;SDS011;67485;48.816;9.930;2023-07-16T08:15:41;4.13;;;1.60;;
78209;SDS011;67485;48.816;9.930;2023-07-16T08:18:07;4.63;;;1.13;;
78209;SDS011;67485;48.816;9.930;2023-07-16T08:20:32;4.30;;;1.50;;
78209;SDS011;67485;48.816;9.930;2023-07-16T08:22:58;4.03;;;1.40;;
78209;SDS011;67485;48.816;9.930;2023-07-16T08:25:23;3.43;;;1.33;;
78209;SDS011;67485;48.816;9.930;2023-07-16T08:27:49;3.10;;;1.10;;
78209;SDS011;67485;48.816;9.930;2023-07-16T08:30:15;3.03;;;1.35;;
78209;SDS011;67485;48.816;9.930;2023-07-16T08:32:40;3.60;;;1.80;;
78209;SDS011;67485;48.816;9.930;2023-07-16T08:35:06;2.92;;;1.23;;
78209;SDS011;67485;48.816;9.930;2023-07-16T08:37:32;3.30;;;1.10;;
78209;SDS011;67485;48.816;9.930;2023-07-16T08:39:58;5.60;;;1.58;;
78209;SDS011;67485;48.816;9.930;2023-07-16T08:42:24;3.93;;;1.70;;
78209;SDS011;67485;48.816;9.930;2023-07-16T08:44:49;3.42;;;1.60;;
78209;SDS011;67485;48.816;9.930;2023-07-16T08:47:15;5.87;;;1.90;;
78209;SDS011;67485;48.816;9.930;2023-07-16T08:49:41;3.83;;;1.73;;
78209;SDS011;67485;48.816;9.930;2023-07-16T08:52:20;2.85;;;1.67;;
78209;SDS011;67485;48.816;9.930;2023-07-16T08:54:45;4.73;;;1.63;;
78209;SDS011;67485;48.816;9.930;2023-07-16T08:57:12;4.78;;;1.52;;
78209;SDS011;67485;48.816;9.930;2023-07-16T08:59:38;3.50;;;1.70;;
78209;SDS011;67485;48.816;9.930;2023-07-16T09:02:04;3.60;;;1.60;;
78209;SDS011;67485;48.816;9.930;2023-07-16T09:04:30;3.30;;;1.58;;
78209;SDS011;67485;48.816;9.930;2023-07-16T09:06:57;3.72;;;1.63;;
78209;SDS011;67485;48.816;9.930;2023-07-16T09:09:23;5.22;;;1.42;;
78209;SDS011;67485;48.816;9.930;2023-07-16T09:11:49;4.40;;;1.33;;
78209;SDS011;67485;48.816;9.930;2023-07-16T09:14:19;6.35;;;1.50;;
78209;SDS011;67485;48.816;9.930;2023-07-16T09:16:51;5.60;;;1.80;;
78209;SDS011;67485;48.816;9.930;2023-07-16T09:19:18;2.55;;;1.50;;
78209;SDS011;67485;48.816;9.930;2023-07-16T09:21:50;4.97;;;2.08;;
78209;SDS011;67485;48.816;9.930;2023-07-16T09:24:17;3.70;;;1.60;;
78209;SDS011;67485;48.816;9.930;2023-07-16T09:26:49;5.18;;;1.75;;
78209;SDS011;67485;48.816;9.930;2023-07-16T09:29:17;5.80;;;1.67;;
78209;SDS011;67485;48.816;9.930;2023-07-16T09:31:53;6.82;;;1.80;;
78209;SDS011;67485;48.816;9.930;2023-07-16T09:34:19;4.32;;;1.90;;
78209;SDS011;67485;48.816;9.930;2023-07-16T09:36:48;3.17;;;1.67;;
78209;SDS011;67485;48.816;9.930;2023-07-16T09:39:18;4.90;;;2.00;;
78209;SDS011;67485;48.816;9.930;2023-07-16T09:41:48;4.32;;;1.75;;
78209;SDS011;67485;48.816;9.930;2023-07-16T09:44:15;4.72;;;1.48;;
78209;SDS011;67485;48.816;9.930;2023-07-16T09:46:41;3.20;;;1.63;;
78209;SDS011;67485;48.816;9.930;2023-07-16T09:49:08;4.95;;;1.70;;
78209;SDS011;67485;48.816;9.930;2023-07-16T09:51:35;5.82;;;1.60;;
78209;SDS011;67485;48.816;9.930;2023-07-16T09:54:02;4.53;;;1.88;;
78209;SDS011;67485;48.816;9.930;2023-07-16T09:56:31;5.15;;;1.90;;
78209;SDS011;67485;48.816;9.930;2023-07-16T09:59:00;3.47;;;1.40;;
78209;SDS011;67485;48.816;9.930;2023-07-16T10:01:28;4.85;;;1.55;;
78209;SDS011;67485;48.816;9.930;2023-07-16T10:03:54;3.90;;;1.55;;
78209;SDS011;67485;48.816;9.930;2023-07-16T10:06:20;3.47;;;1.90;;
78209;SDS011;67485;48.816;9.930;2023-07-16T10:08:49;5.32;;;1.88;;
78209;SDS011;67485;48.816;9.930;2023-07-16T10:11:16;4.35;;;1.60;;
78209;SDS011;67485;48.816;9.930;2023-07-16T10:13:43;3.75;;;1.80;;
78209;SDS011;67485;48.816;9.930;2023-07-16T10:16:09;5.07;;;2.40;;
78209;SDS011;67485;48.816;9.930;2023-07-16T10:18:50;3.83;;;1.60;;
78209;SDS011;67485;48.816;9.930;2023-07-16T10:21:24;7.57;;;2.03;;
78209;SDS011;67485;48.816;9.930;2023-07-16T10:23:57;4.28;;;1.77;;
78209;SDS011;67485;48.816;9.930;2023-07-16T10:26:28;3.65;;;1.70;;
78209;SDS011;67485;48.816;9.930;2023-07-16T10:28:55;2.93;;;1.80;;
78209;SDS011;67485;48.816;9.930;2023-07-16T10:31:24;7.55;;;2.10;;
78209;SDS011;67485;48.816;9.930;2023-07-16T10:36:25;3.47;;;1.80;;
78209;SDS011;67485;48.816;9.930;2023-07-16T10:38:51;3.33;;;1.67;;
78209;SDS011;67485;48.816;9.930;2023-07-16T10:41:17;4.40;;;1.90;;
78209;SDS011;67485;48.816;9.930;2023-07-16T10:43:42;4.43;;;2.30;;
78209;SDS011;67485;48.816;9.930;2023-07-16T10:46:09;3.25;;;2.10;;
78209;SDS011;67485;48.816;9.930;2023-07-16T10:48:34;4.65;;;1.80;;
78209;SDS011;67485;48.816;9.930;2023-07-16T10:51:00;3.13;;;1.70;;
78209;SDS011;67485;48.816;9.930;2023-07-16T10:53:26;3.27;;;1.50;;
78209;SDS011;67485;48.816;9.930;2023-07-16T10:55:51;4.78;;;1.75;;
78209;SDS011;67485;48.816;9.930;2023-07-16T10:58:17;2.80;;;1.50;;
78209;SDS011;67485;48.816;9.930;2023-07-16T11:00:44;4.10;;;1.90;;
78209;SDS011;67485;48.816;9.930;2023-07-16T11:03:10;3.05;;;1.90;;
78209;SDS011;67485;48.816;9.930;2023-07-16T11:05:36;4.03;;;2.10;;
78209;SDS011;67485;48.816;9.930;2023-07-16T11:08:01;5.57;;;2.00;;
78209;SDS011;67485;48.816;9.930;2023-07-16T11:10:28;3.63;;;1.70;;
78209;SDS011;67485;48.816;9.930;2023-07-16T11:12:55;5.18;;;1.80;;
78209;SDS011;67485;48.816;9.930;2023-07-16T11:15:30;4.70;;;2.00;;
78209;SDS011;67485;48.816;9.930;2023-07-16T11:17:58;3.13;;;2.17;;
78209;SDS011;67485;48.816;9.930;2023-07-16T11:20:24;3.55;;;1.40;;
78209;SDS011;67485;48.816;9.930;2023-07-16T11:22:49;3.97;;;1.80;;
78209;SDS011;67485;48.816;9.930;2023-07-16T11:25:15;4.07;;;1.77;;
78209;SDS011;67485;48.816;9.930;2023-07-16T11:27:41;3.63;;;1.80;;
78209;SDS011;67485;48.816;9.930;2023-07-16T11:30:07;4.00;;;1.92;;
78209;SDS011;67485;48.816;9.930;2023-07-16T11:35:15;3.90;;;1.80;;
78209;SDS011;67485;48.816;9.930;2023-07-16T11:37:44;4.03;;;1.50;;
78209;SDS011;67485;48.816;9.930;2023-07-16T11:40:14;3.28;;;1.40;;
78209;SDS011;67485;48.816;9.930;2023-07-16T11:42:41;2.75;;;1.67;;
78209;SDS011;67485;48.816;9.930;2023-07-16T11:45:15;4.50;;;1.85;;
78209;SDS011;67485;48.816;9.930;2023-07-16T11:47:42;4.30;;;1.90;;
78209;SDS011;67485;48.816;9.930;2023-07-16T11:50:08;3.33;;;1.80;;
78209;SDS011;67485;48.816;9.930;2023-07-16T11:52:33;3.15;;;1.80;;
78209;SDS011;67485;48.816;9.930;2023-07-16T11:54:59;2.67;;;2.00;;
78209;SDS011;67485;48.816;9.930;2023-07-16T11:57:25;3.53;;;2.30;;
78209;SDS011;67485;48.816;9.930;2023-07-16T11:59:51;3.63;;;1.90;;
78209;SDS011;67485;48.816;9.930;2023-07-16T12:02:17;5.90;;;2.10;;
78209;SDS011;67485;48.816;9.930;2023-07-16T12:04:42;3.75;;;1.75;;
78209;SDS011;67485;48.816;9.930;2023-07-16T12:07:08;2.50;;;1.63;;
78209;SDS011;67485;48.816;9.930;2023-07-16T12:09:34;3.00;;;1.50;;
78209;SDS011;67485;48.816;9.930;2023-07-16T12:12:00;3.70;;;1.97;;
78209;SDS011;67485;48.816;9.930;2023-07-16T12:14:26;3.80;;;1.90;;
78209;SDS011;67485;48.816;9.930;2023-07-16T12:16:52;2.92;;;1.98;;
78209;SDS011;67485;48.816;9.930;2023-07-16T12:19:18;3.13;;;1.60;;
78209;SDS011;67485;48.816;9.930;2023-07-16T12:21:43;4.47;;;2.00;;
78209;SDS011;67485;48.816;9.930;2023-07-16T12:24:09;3.30;;;1.75;;
78209;SDS011;67485;48.816;9.930;2023-07-16T12:26:35;3.08;;;1.70;;
78209;SDS011;67485;48.816;9.930;2023-07-16T12:29:01;4.20;;;1.50;;
78209;SDS011;67485;48.816;9.930;2023-07-16T12:31:30;4.03;;;1.75;;
78209;SDS011;67485;48.816;9.930;2023-07-16T12:34:00;3.20;;;1.90;;
78209;SDS011;67485;48.816;9.930;2023-07-16T12:36:27;3.63;;;2.28;;
78209;SDS011;67485;48.816;9.930;2023-07-16T12:38:53;3.35;;;1.95;;
78209;SDS011;67485;48.816;9.930;2023-07-16T12:41:19;3.57;;;2.10;;
78209;SDS011;67485;48.816;9.930;2023-07-16T12:43:45;2.77;;;1.90;;
78209;SDS011;67485;48.816;9.930;2023-07-16T12:46:12;5.13;;;1.90;;
78209;SDS011;67485;48.816;9.930;2023-07-16T12:48:37;3.45;;;1.83;;
78209;SDS011;67485;48.816;9.930;2023-07-16T12:51:03;3.60;;;1.50;;
78209;SDS011;67485;48.816;9.930;2023-07-16T12:53:29;3.92;;;2.30;;
78209;SDS011;67485;48.816;9.930;2023-07-16T12:55:54;3.10;;;1.70;;
78209;SDS011;67485;48.816;9.930;2023-07-16T12:58:20;4.43;;;2.30;;
78209;SDS011;67485;48.816;9.930;2023-07-16T13:00:47;2.75;;;1.52;;
78209;SDS011;67485;48.816;9.930;2023-07-16T13:03:12;3.63;;;2.30;;
78209;SDS011;67485;48.816;9.930;2023-07-16T13:05:41;4.35;;;2.13;;
78209;SDS011;67485;48.816;9.930;2023-07-16T13:08:09;2.67;;;1.92;;
78209;SDS011;67485;48.816;9.930;2023-07-16T13:10:34;3.73;;;1.50;;
78209;SDS011;67485;48.816;9.930;2023-07-16T13:13:00;4.00;;;1.80;;
78209;SDS011;67485;48.816;9.930;2023-07-16T13:15:28;3.20;;;2.00;;
78209;SDS011;67485;48.816;9.930;2023-07-16T13:17:55;3.17;;;1.80;;
78209;SDS011;67485;48.816;9.930;2023-07-16T13:20:20;3.10;;;1.60;;
78209;SDS011;67485;48.816;9.930;2023-07-16T13:22:47;3.78;;;1.88;;
78209;SDS011;67485;48.816;9.930;2023-07-16T13:25:13;2.85;;;1.88;;
78209;SDS011;67485;48.816;9.930;2023-07-16T13:27:38;4.50;;;1.90;;
78209;SDS011;67485;48.816;9.930;2023-07-16T13:30:05;8.68;;;2.10;;
78209;SDS011;67485;48.816;9.930;2023-07-16T13:32:31;3.20;;;1.58;;
78209;SDS011;67485;48.816;9.930;2023-07-16T13:34:57;3.37;;;1.70;;
78209;SDS011;67485;48.816;9.930;2023-07-16T13:37:22;3.55;;;2.10;;
78209;SDS011;67485;48.816;9.930;2023-07-16T13:39:48;4.30;;;1.80;;
78209;SDS011;67485;48.816;9.930;2023-07-16T13:42:14;2.90;;;1.95;;
78209;SDS011;67485;48.816;9.930;2023-07-16T13:44:39;3.13;;;2.33;;
78209;SDS011;67485;48.816;9.930;2023-07-16T13:47:05;3.28;;;2.05;;
78209;SDS011;67485;48.816;9.930;2023-07-16T13:49:31;3.90;;;2.03;;
78209;SDS011;67485;48.816;9.930;2023-07-16T13:51:56;2.63;;;1.60;;
78209;SDS011;67485;48.816;9.930;2023-07-16T13:54:22;2.87;;;1.90;;
78209;SDS011;67485;48.816;9.930;2023-07-16T13:56:50;2.83;;;1.70;;
78209;SDS011;67485;48.816;9.930;2023-07-16T13:59:16;3.27;;;1.47;;
78209;SDS011;67485;48.816;9.930;2023-07-16T14:01:42;2.90;;;1.70;;
78209;SDS011;67485;48.816;9.930;2023-07-16T14:04:07;3.67;;;2.20;;
78209;SDS011;67485;48.816;9.930;2023-07-16T14:06:33;4.50;;;2.00;;
78209;SDS011;67485;48.816;9.930;2023-07-16T14:08:59;2.85;;;1.63;;
78209;SDS011;67485;48.816;9.930;2023-07-16T14:11:25;2.70;;;1.50;;
78209;SDS011;67485;48.816;9.930;2023-07-16T14:13:51;3.33;;;1.30;;
78209;SDS011;67485;48.816;9.930;2023-07-16T14:16:18;5.22;;;1.60;;
78209;SDS011;67485;48.816;9.930;2023-07-16T14:18:44;3.92;;;1.83;;
78209;SDS011;67485;48.816;9.930;2023-07-16T14:21:10;3.80;;;1.73;;
78209;SDS011;67485;48.816;9.930;2023-07-16T14:23:36;4.03;;;1.65;;
78209;SDS011;67485;48.816;9.930;2023-07-16T14:26:02;2.63;;;1.60;;
78209;SDS011;67485;48.816;9.930;2023-07-16T14:28:28;2.33;;;1.70;;
78209;SDS011;67485;48.816;9.930;2023-07-16T14:30:54;4.50;;;1.40;;
78209;SDS011;67485;48.816;9.930;2023-07-16T14:33:20;4.00;;;1.97;;
78209;SDS011;67485;48.816;9.930;2023-07-16T14:35:46;3.33;;;1.70;;
78209;SDS011;67485;48.816;9.930;2023-07-16T14:38:12;2.72;;;1.90;;
78209;SDS011;67485;48.816;9.930;2023-07-16T14:40:38;2.90;;;1.53;;
78209;SDS011;67485;48.816;9.930;2023-07-16T14:43:04;2.83;;;1.80;;
78209;SDS011;67485;48.816;9.930;2023-07-16T14:45:31;3.08;;;1.70;;
78209;SDS011;67485;48.816;9.930;2023-07-16T14:47:58;3.28;;;1.88;;
78209;SDS011;67485;48.816;9.930;2023-07-16T14:50:23;3.97;;;1.67;;
78209;SDS011;67485;48.816;9.930;2023-07-16T14:52:49;3.30;;;1.75;;
78209;SDS011;67485;48.816;9.930;2023-07-16T14:55:15;4.47;;;2.13;;